createdAt,value
2019-04-07T00:00:13.651Z,10.837402
2019-04-07T00:00:29.655Z,10.847473
2019-04-07T00:00:45.706Z,10.847473
2019-04-07T00:01:01.668Z,10.847473
2019-04-07T00:01:17.787Z,10.837402
2019-04-07T00:01:33.772Z,10.817261
2019-04-07T00:01:49.754Z,10.837402
2019-04-07T00:02:05.739Z,10.817261
2019-04-07T00:02:21.755Z,10.817261
2019-04-07T00:02:37.829Z,10.817261
2019-04-07T00:02:53.979Z,10.80719
2019-04-07T00:03:09.990Z,10.787048
2019-04-07T00:03:25.986Z,10.80719
2019-04-07T00:03:41.982Z,10.80719
2019-04-07T00:03:57.947Z,10.80719
2019-04-07T00:04:14.051Z,10.80719
2019-04-07T00:04:30.048Z,10.776978
2019-04-07T00:04:46.035Z,10.787048
2019-04-07T00:05:11.801Z,10.787048
2019-04-07T00:05:24.895Z,10.756836
2019-04-07T00:05:40.917Z,10.776978
2019-04-07T00:05:56.882Z,10.756836
2019-04-07T00:06:12.864Z,10.756836
2019-04-07T00:06:28.829Z,10.776978
2019-04-07T00:06:44.727Z,10.756836
2019-04-07T00:07:00.660Z,10.756836
2019-04-07T00:07:16.715Z,10.756836
2019-04-07T00:07:31.603Z,10.736694
2019-04-07T00:07:46.632Z,10.736694
2019-04-07T00:08:03.847Z,10.726624
2019-04-07T00:08:19.909Z,10.726624
2019-04-07T00:08:35.905Z,10.726624
2019-04-07T00:08:52.890Z,10.726624
2019-04-07T00:09:09.111Z,10.726624
2019-04-07T00:09:25.219Z,10.706482
2019-04-07T00:09:41.937Z,10.706482
2019-04-07T00:09:59.892Z,10.696411
2019-04-07T00:10:17.451Z,10.696411
2019-04-07T00:10:33.750Z,10.67627
2019-04-07T00:10:49.918Z,10.67627
2019-04-07T00:11:07.722Z,10.696411
2019-04-07T00:11:24.944Z,10.67627
2019-04-07T00:11:42.220Z,10.67627
2019-04-07T00:11:58.521Z,10.666199
2019-04-07T00:12:15.676Z,10.666199
2019-04-07T00:12:34.057Z,10.656128
2019-04-07T00:12:53.337Z,10.656128
2019-04-07T00:13:15.479Z,10.666199
2019-04-07T00:13:35.871Z,10.635986
2019-04-07T00:13:57.279Z,10.635986
2019-04-07T00:14:16.005Z,10.625916
2019-04-07T00:14:35.288Z,10.625916
2019-04-07T00:14:53.443Z,10.625916
2019-04-07T00:15:13.355Z,10.625916
2019-04-07T00:15:31.468Z,10.605774
2019-04-07T00:15:48.258Z,10.625916
2019-04-07T00:16:06.552Z,10.625916
2019-04-07T00:16:23.562Z,10.625916
2019-04-07T00:16:42.050Z,10.605774
2019-04-07T00:16:58.954Z,10.605774
2019-04-07T00:17:17.274Z,10.595703
2019-04-07T00:17:35.556Z,10.605774
2019-04-07T00:17:52.544Z,10.595703
2019-04-07T00:18:09.693Z,10.595703
2019-04-07T00:18:29.140Z,10.585632
2019-04-07T00:18:46.364Z,10.585632
2019-04-07T00:19:03.703Z,10.55542
2019-04-07T00:19:20.210Z,10.55542
2019-04-07T00:19:37.126Z,10.585632
2019-04-07T00:19:54.104Z,10.55542
2019-04-07T00:20:11.783Z,10.55542
2019-04-07T00:20:29.078Z,10.525208
2019-04-07T00:20:46.752Z,10.55542
2019-04-07T00:21:03.282Z,10.545349
2019-04-07T00:21:20.191Z,10.525208
2019-04-07T00:21:39.010Z,10.525208
2019-04-07T00:21:58.710Z,10.515137
2019-04-07T00:22:19.308Z,10.545349
2019-04-07T00:22:39.958Z,10.525208
2019-04-07T00:23:00.402Z,10.525208
2019-04-07T00:23:19.483Z,10.545349
2019-04-07T00:23:41.194Z,10.545349
2019-04-07T00:24:02.828Z,10.515137
2019-04-07T00:24:21.284Z,10.525208
2019-04-07T00:24:46.139Z,10.525208
2019-04-07T00:25:09.939Z,10.515137
2019-04-07T00:25:27.051Z,10.515137
2019-04-07T00:25:46.176Z,10.505066
2019-04-07T00:26:09.167Z,10.505066
2019-04-07T00:26:27.373Z,10.505066
2019-04-07T00:26:50.749Z,10.484924
2019-04-07T00:27:09.510Z,10.505066
2019-04-07T00:27:29.638Z,10.484924
2019-04-07T00:27:48.578Z,10.484924
2019-04-07T00:28:07.895Z,10.474854
2019-04-07T00:28:29.552Z,10.505066
2019-04-07T00:28:49.218Z,10.484924
2019-04-07T00:29:08.052Z,10.474854
2019-04-07T00:29:25.930Z,10.474854
2019-04-07T00:29:46.351Z,10.474854
2019-04-07T00:30:05.916Z,10.474854
2019-04-07T00:30:28.583Z,10.474854
2019-04-07T00:30:48.333Z,10.454712
2019-04-07T00:31:07.852Z,10.454712
2019-04-07T00:31:25.914Z,10.444641
2019-04-07T00:31:49.398Z,10.4245
2019-04-07T00:32:07.921Z,10.444641
2019-04-07T00:32:32.174Z,10.4245
2019-04-07T00:32:49.665Z,10.414429
2019-04-07T00:33:10.667Z,10.404358
2019-04-07T00:33:30.361Z,10.4245
2019-04-07T00:33:50.987Z,10.404358
2019-04-07T00:34:09.046Z,10.404358
2019-04-07T00:34:26.935Z,10.4245
2019-04-07T00:34:44.520Z,10.404358
2019-04-07T00:35:02.468Z,10.384216
2019-04-07T00:35:29.320Z,10.404358
2019-04-07T00:35:49.121Z,10.404358
2019-04-07T00:36:06.683Z,10.404358
2019-04-07T00:36:24.869Z,10.404358
2019-04-07T00:36:44.127Z,10.404358
2019-04-07T00:37:02.409Z,10.404358
2019-04-07T00:37:20.110Z,10.384216
2019-04-07T00:37:35.615Z,10.384216
2019-04-07T00:37:51.128Z,10.364075
2019-04-07T00:38:06.695Z,10.364075
2019-04-07T00:38:22.221Z,10.364075
2019-04-07T00:38:37.731Z,10.343933
2019-04-07T00:38:53.316Z,10.343933
2019-04-07T00:39:08.794Z,10.364075
2019-04-07T00:39:25.263Z,10.343933
2019-04-07T00:39:40.664Z,10.343933
2019-04-07T00:39:56.051Z,10.364075
2019-04-07T00:40:11.435Z,10.343933
2019-04-07T00:40:27.754Z,10.343933
2019-04-07T00:40:42.164Z,10.343933
2019-04-07T00:40:58.554Z,10.343933
2019-04-07T00:41:13.929Z,10.333862
2019-04-07T00:41:29.330Z,10.343933
2019-04-07T00:41:44.727Z,10.333862
2019-04-07T00:42:01.137Z,10.333862
2019-04-07T00:42:16.573Z,10.333862
2019-04-07T00:42:31.981Z,10.333862
2019-04-07T00:42:47.390Z,10.333862
2019-04-07T00:43:02.762Z,10.323792
2019-04-07T00:43:18.169Z,10.323792
2019-04-07T00:43:33.552Z,10.30365
2019-04-07T00:43:48.970Z,10.293579
2019-04-07T00:44:04.395Z,10.293579
2019-04-07T00:44:21.823Z,10.293579
2019-04-07T00:44:37.222Z,10.273438
2019-04-07T00:44:52.627Z,10.273438
2019-04-07T00:45:08.058Z,10.263367
2019-04-07T00:45:23.424Z,10.293579
2019-04-07T00:45:39.874Z,10.273438
2019-04-07T00:45:55.276Z,10.273438
2019-04-07T00:46:10.818Z,10.273438
2019-04-07T00:46:26.223Z,10.273438
2019-04-07T00:46:41.583Z,10.273438
2019-04-07T00:46:57.012Z,10.253296
2019-04-07T00:47:12.405Z,10.253296
2019-04-07T00:47:27.875Z,10.233154
2019-04-07T00:47:43.309Z,10.253296
2019-04-07T00:47:58.714Z,10.253296
2019-04-07T00:48:15.085Z,10.253296
2019-04-07T00:48:30.486Z,10.253296
2019-04-07T00:48:46.869Z,10.253296
2019-04-07T00:49:02.281Z,10.263367
2019-04-07T00:49:17.661Z,10.253296
2019-04-07T00:49:34.106Z,10.253296
2019-04-07T00:49:49.499Z,10.253296
2019-04-07T00:50:05.908Z,10.253296
2019-04-07T00:50:21.307Z,10.263367
2019-04-07T00:50:37.724Z,10.253296
2019-04-07T00:50:53.166Z,10.253296
2019-04-07T00:51:09.584Z,10.253296
2019-04-07T00:51:24.981Z,10.253296
2019-04-07T00:51:40.377Z,10.233154
2019-04-07T00:51:56.773Z,10.233154
2019-04-07T00:52:11.204Z,10.253296
2019-04-07T00:52:26.645Z,10.233154
2019-04-07T00:52:42.040Z,10.233154
2019-04-07T00:52:58.435Z,10.233154
2019-04-07T00:53:12.826Z,10.233154
2019-04-07T00:53:28.249Z,10.233154
2019-04-07T00:53:43.680Z,10.233154
2019-04-07T00:53:59.082Z,10.233154
2019-04-07T00:54:14.443Z,10.233154
2019-04-07T00:54:29.865Z,10.233154
2019-04-07T00:54:45.238Z,10.233154
2019-04-07T00:55:00.623Z,10.223083
2019-04-07T00:55:16.036Z,10.223083
2019-04-07T00:55:31.464Z,10.202942
2019-04-07T00:55:46.871Z,10.202942
2019-04-07T00:56:02.255Z,10.1828
2019-04-07T00:56:17.646Z,10.172729
2019-04-07T00:56:33.002Z,10.172729
2019-04-07T00:56:48.456Z,10.172729
2019-04-07T00:57:03.816Z,10.172729
2019-04-07T00:57:19.207Z,10.152588
2019-04-07T00:57:34.686Z,10.142517
2019-04-07T00:57:50.091Z,10.142517
2019-04-07T00:58:05.490Z,10.122375
2019-04-07T00:58:20.890Z,10.142517
2019-04-07T00:58:36.273Z,10.142517
2019-04-07T00:58:51.730Z,10.122375
2019-04-07T00:59:07.174Z,10.142517
2019-04-07T00:59:22.612Z,10.112305
2019-04-07T00:59:37.998Z,10.122375
2019-04-07T00:59:53.400Z,10.112305
2019-04-07T01:00:08.895Z,10.122375
2019-04-07T01:00:26.353Z,10.112305
2019-04-07T01:00:41.766Z,10.112305
2019-04-07T01:00:58.164Z,10.112305
2019-04-07T01:01:13.542Z,10.092163
2019-04-07T01:01:28.938Z,10.092163
2019-04-07T01:01:44.319Z,10.092163
2019-04-07T01:01:59.726Z,10.092163
2019-04-07T01:02:15.115Z,10.082092
2019-04-07T01:02:30.477Z,10.082092
2019-04-07T01:02:45.871Z,10.082092
2019-04-07T01:03:01.264Z,10.072021
2019-04-07T01:03:16.683Z,10.05188
2019-04-07T01:03:32.055Z,10.05188
2019-04-07T01:03:47.467Z,10.041809
2019-04-07T01:04:02.865Z,10.041809
2019-04-07T01:04:18.268Z,10.041809
2019-04-07T01:04:33.638Z,10.041809
2019-04-07T01:04:49.019Z,10.041809
2019-04-07T01:05:04.413Z,10.021667
2019-04-07T01:05:19.857Z,10.041809
2019-04-07T01:05:45.128Z,10.041809
2019-04-07T01:06:00.511Z,10.041809
2019-04-07T01:06:15.890Z,10.041809
2019-04-07T01:06:31.286Z,10.041809
2019-04-07T01:06:46.626Z,10.05188
2019-04-07T01:07:02.024Z,10.072021
2019-04-07T01:07:17.390Z,10.05188
2019-04-07T01:07:32.790Z,10.05188
2019-04-07T01:07:48.153Z,10.041809
2019-04-07T01:08:03.605Z,10.041809
2019-04-07T01:08:20.001Z,10.041809
2019-04-07T01:08:35.462Z,10.041809
2019-04-07T01:08:50.850Z,10.05188
2019-04-07T01:09:06.326Z,10.041809
2019-04-07T01:09:21.665Z,10.05188
2019-04-07T01:09:37.085Z,10.041809
2019-04-07T01:09:52.491Z,10.05188
2019-04-07T01:10:08.070Z,10.05188
2019-04-07T01:10:23.468Z,10.021667
2019-04-07T01:10:39.855Z,10.021667
2019-04-07T01:10:55.249Z,10.041809
2019-04-07T01:11:10.671Z,10.05188
2019-04-07T01:11:26.058Z,10.05188
2019-04-07T01:11:41.441Z,10.05188
2019-04-07T01:11:56.809Z,10.041809
2019-04-07T01:12:12.214Z,10.041809
2019-04-07T01:12:27.549Z,10.021667
2019-04-07T01:12:42.939Z,10.021667
2019-04-07T01:12:58.340Z,10.021667
2019-04-07T01:13:13.738Z,10.021667
2019-04-07T01:13:29.152Z,10.021667
2019-04-07T01:13:44.573Z,10.011597
2019-04-07T01:13:59.972Z,10.011597
2019-04-07T01:14:15.364Z,10.011597
2019-04-07T01:14:30.759Z,10.011597
2019-04-07T01:14:46.161Z,10.021667
2019-04-07T01:15:01.549Z,10.011597
2019-04-07T01:15:16.963Z,10.011597
2019-04-07T01:15:32.397Z,10.011597
2019-04-07T01:15:47.779Z,10.011597
2019-04-07T01:16:03.224Z,10.021667
2019-04-07T01:16:19.139Z,10.021667
2019-04-07T01:16:34.608Z,10.021667
2019-04-07T01:16:50.077Z,10.011597
2019-04-07T01:17:05.475Z,10.041809
2019-04-07T01:17:20.871Z,10.041809
2019-04-07T01:17:36.308Z,10.021667
2019-04-07T01:17:51.706Z,10.041809
2019-04-07T01:18:07.114Z,10.05188
2019-04-07T01:18:22.510Z,10.041809
2019-04-07T01:18:39.899Z,10.041809
2019-04-07T01:18:56.320Z,10.05188
2019-04-07T01:19:11.755Z,10.041809
2019-04-07T01:19:27.206Z,10.041809
2019-04-07T01:19:42.603Z,10.041809
2019-04-07T01:19:58.020Z,10.041809
2019-04-07T01:20:13.415Z,10.021667
2019-04-07T01:20:28.902Z,10.011597
2019-04-07T01:20:51.258Z,9.991455
2019-04-07T01:21:06.650Z,9.991455
2019-04-07T01:21:22.108Z,9.991455
2019-04-07T01:21:37.497Z,9.971313
2019-04-07T01:21:52.901Z,9.971313
2019-04-07T01:22:08.344Z,9.971313
2019-04-07T01:22:23.722Z,9.961243
2019-04-07T01:22:39.154Z,9.961243
2019-04-07T01:22:54.552Z,9.961243
2019-04-07T01:23:09.940Z,9.93103
2019-04-07T01:23:25.342Z,9.93103
2019-04-07T01:23:40.816Z,9.961243
2019-04-07T01:23:56.227Z,9.961243
2019-04-07T01:24:11.625Z,9.941101
2019-04-07T01:24:27.031Z,9.961243
2019-04-07T01:24:42.425Z,9.941101
2019-04-07T01:24:57.813Z,9.941101
2019-04-07T01:25:13.188Z,9.941101
2019-04-07T01:25:28.587Z,9.941101
2019-04-07T01:25:43.956Z,9.93103
2019-04-07T01:26:00.311Z,9.941101
2019-04-07T01:26:15.664Z,9.941101
2019-04-07T01:26:31.102Z,9.93103
2019-04-07T01:26:46.481Z,9.93103
2019-04-07T01:27:02.138Z,9.941101
2019-04-07T01:27:17.561Z,9.93103
2019-04-07T01:27:32.978Z,9.941101
2019-04-07T01:27:48.411Z,9.961243
2019-04-07T01:28:03.778Z,9.941101
2019-04-07T01:28:19.167Z,9.941101
2019-04-07T01:28:34.662Z,9.941101
2019-04-07T01:28:50.077Z,9.93103
2019-04-07T01:29:07.444Z,9.93103
2019-04-07T01:29:23.851Z,9.93103
2019-04-07T01:29:38.209Z,9.93103
2019-04-07T01:29:53.586Z,9.93103
2019-04-07T01:30:08.977Z,9.93103
2019-04-07T01:30:24.427Z,9.910889
2019-04-07T01:30:39.778Z,9.900818
2019-04-07T01:30:56.176Z,9.900818
2019-04-07T01:31:11.563Z,9.890747
2019-04-07T01:31:26.971Z,9.870605
2019-04-07T01:31:42.407Z,9.870605
2019-04-07T01:31:57.742Z,9.860535
2019-04-07T01:32:13.141Z,9.840393
2019-04-07T01:32:28.508Z,9.860535
2019-04-07T01:32:43.907Z,9.840393
2019-04-07T01:32:59.309Z,9.840393
2019-04-07T01:33:14.678Z,9.840393
2019-04-07T01:33:30.693Z,9.840393
2019-04-07T01:33:46.080Z,9.830322
2019-04-07T01:34:01.486Z,9.810181
2019-04-07T01:34:17.859Z,9.810181
2019-04-07T01:34:33.329Z,9.810181
2019-04-07T01:34:48.718Z,9.810181
2019-04-07T01:35:04.117Z,9.810181
2019-04-07T01:35:19.511Z,9.790039
2019-04-07T01:35:44.781Z,9.790039
2019-04-07T01:35:59.161Z,9.779968
2019-04-07T01:36:15.526Z,9.779968
2019-04-07T01:36:30.969Z,9.759827
2019-04-07T01:36:47.375Z,9.759827
2019-04-07T01:37:02.758Z,9.759827
2019-04-07T01:37:18.114Z,9.759827
2019-04-07T01:37:33.492Z,9.759827
2019-04-07T01:37:48.898Z,9.759827
2019-04-07T01:38:04.314Z,9.759827
2019-04-07T01:38:19.684Z,9.749756
2019-04-07T01:38:35.049Z,9.749756
2019-04-07T01:38:50.448Z,9.759827
2019-04-07T01:39:05.852Z,9.749756
2019-04-07T01:39:21.259Z,9.749756
2019-04-07T01:39:36.636Z,9.739685
2019-04-07T01:39:52.010Z,9.739685
2019-04-07T01:40:07.412Z,9.739685
2019-04-07T01:40:22.808Z,9.739685
2019-04-07T01:40:38.358Z,9.739685
2019-04-07T01:40:53.742Z,9.749756
2019-04-07T01:41:09.174Z,9.739685
2019-04-07T01:41:24.684Z,9.719543
2019-04-07T01:41:40.102Z,9.719543
2019-04-07T01:41:55.537Z,9.739685
2019-04-07T01:42:10.911Z,9.739685
2019-04-07T01:42:27.340Z,9.739685
2019-04-07T01:42:42.744Z,9.719543
2019-04-07T01:42:58.170Z,9.719543
2019-04-07T01:43:14.614Z,9.739685
2019-04-07T01:43:31.072Z,9.739685
2019-04-07T01:43:46.504Z,9.749756
2019-04-07T01:44:01.933Z,9.739685
2019-04-07T01:44:17.289Z,9.739685
2019-04-07T01:44:32.687Z,9.739685
2019-04-07T01:44:49.045Z,9.749756
2019-04-07T01:45:04.437Z,9.749756
2019-04-07T01:45:19.864Z,9.749756
2019-04-07T01:45:36.265Z,9.749756
2019-04-07T01:45:51.796Z,9.759827
2019-04-07T01:46:08.159Z,9.759827
2019-04-07T01:46:23.535Z,9.759827
2019-04-07T01:46:39.891Z,9.739685
2019-04-07T01:46:55.294Z,9.749756
2019-04-07T01:47:10.661Z,9.759827
2019-04-07T01:47:26.036Z,9.749756
2019-04-07T01:47:41.466Z,9.759827
2019-04-07T01:47:57.799Z,9.759827
2019-04-07T01:48:13.230Z,9.759827
2019-04-07T01:48:28.602Z,9.759827
2019-04-07T01:48:44.029Z,9.749756
2019-04-07T01:49:00.375Z,9.779968
2019-04-07T01:49:17.729Z,9.779968
2019-04-07T01:49:33.128Z,9.779968
2019-04-07T01:49:49.522Z,9.759827
2019-04-07T01:50:04.921Z,9.759827
2019-04-07T01:50:20.334Z,9.779968
2019-04-07T01:50:35.697Z,9.779968
2019-04-07T01:50:51.089Z,9.759827
2019-04-07T01:51:07.457Z,9.810181
2019-04-07T01:51:22.950Z,9.779968
2019-04-07T01:51:39.376Z,9.790039
2019-04-07T01:51:54.769Z,9.790039
2019-04-07T01:52:10.151Z,9.790039
2019-04-07T01:52:25.583Z,9.810181
2019-04-07T01:52:40.929Z,9.810181
2019-04-07T01:52:56.353Z,9.790039
2019-04-07T01:53:11.865Z,9.810181
2019-04-07T01:53:27.351Z,9.810181
2019-04-07T01:53:43.753Z,9.810181
2019-04-07T01:53:59.204Z,9.810181
2019-04-07T01:54:14.698Z,9.830322
2019-04-07T01:54:30.117Z,9.830322
2019-04-07T01:54:46.563Z,9.830322
2019-04-07T01:55:01.997Z,9.840393
2019-04-07T01:55:17.432Z,9.830322
2019-04-07T01:55:32.863Z,9.830322
2019-04-07T01:55:49.260Z,9.840393
2019-04-07T01:56:04.684Z,9.840393
2019-04-07T01:56:20.143Z,9.840393
2019-04-07T01:56:35.564Z,9.840393
2019-04-07T01:56:50.959Z,9.830322
2019-04-07T01:57:07.400Z,9.840393
2019-04-07T01:57:22.874Z,9.840393
2019-04-07T01:57:38.239Z,9.860535
2019-04-07T01:57:53.708Z,9.840393
2019-04-07T01:58:09.127Z,9.840393
2019-04-07T01:58:24.554Z,9.840393
2019-04-07T01:58:39.951Z,9.840393
2019-04-07T01:58:55.453Z,9.840393
2019-04-07T01:59:13.813Z,9.840393
2019-04-07T01:59:28.269Z,9.840393
2019-04-07T01:59:43.704Z,9.830322
2019-04-07T02:00:00.092Z,9.810181
2019-04-07T02:00:15.512Z,9.810181
2019-04-07T02:00:30.936Z,9.830322
2019-04-07T02:00:47.427Z,9.830322
2019-04-07T02:01:04.784Z,9.830322
2019-04-07T02:01:20.187Z,9.810181
2019-04-07T02:01:35.638Z,9.810181
2019-04-07T02:01:51.021Z,9.790039
2019-04-07T02:02:06.455Z,9.790039
2019-04-07T02:02:21.957Z,9.790039
2019-04-07T02:02:38.443Z,9.790039
2019-04-07T02:02:53.836Z,9.810181
2019-04-07T02:03:09.293Z,9.810181
2019-04-07T02:03:24.747Z,9.810181
2019-04-07T02:03:40.145Z,9.790039
2019-04-07T02:03:55.587Z,9.810181
2019-04-07T02:04:11.027Z,9.790039
2019-04-07T02:04:26.414Z,9.779968
2019-04-07T02:04:41.836Z,9.790039
2019-04-07T02:04:57.287Z,9.779968
2019-04-07T02:05:12.694Z,9.779968
2019-04-07T02:05:28.142Z,9.790039
2019-04-07T02:05:43.598Z,9.790039
2019-04-07T02:06:08.876Z,9.779968
2019-04-07T02:06:23.868Z,9.779968
2019-04-07T02:06:39.269Z,9.779968
2019-04-07T02:06:54.676Z,9.779968
2019-04-07T02:07:10.070Z,9.759827
2019-04-07T02:07:26.551Z,9.759827
2019-04-07T02:07:42.909Z,9.759827
2019-04-07T02:07:58.396Z,9.749756
2019-04-07T02:08:13.772Z,9.779968
2019-04-07T02:08:29.147Z,9.759827
2019-04-07T02:08:44.575Z,9.759827
2019-04-07T02:08:59.995Z,9.759827
2019-04-07T02:09:15.387Z,9.779968
2019-04-07T02:09:30.804Z,9.779968
2019-04-07T02:09:46.167Z,9.779968
2019-04-07T02:10:01.596Z,9.759827
2019-04-07T02:10:18.016Z,9.759827
2019-04-07T02:10:33.403Z,9.779968
2019-04-07T02:10:48.819Z,9.759827
2019-04-07T02:11:04.233Z,9.759827
2019-04-07T02:11:20.393Z,9.749756
2019-04-07T02:11:36.842Z,9.779968
2019-04-07T02:11:52.253Z,9.759827
2019-04-07T02:12:08.658Z,9.759827
2019-04-07T02:12:24.055Z,9.759827
2019-04-07T02:12:39.450Z,9.759827
2019-04-07T02:12:54.873Z,9.749756
2019-04-07T02:13:10.347Z,9.749756
2019-04-07T02:13:25.721Z,9.749756
2019-04-07T02:13:42.159Z,9.749756
2019-04-07T02:13:57.593Z,9.759827
2019-04-07T02:14:12.998Z,9.759827
2019-04-07T02:14:28.386Z,9.759827
2019-04-07T02:14:43.810Z,9.779968
2019-04-07T02:14:59.255Z,9.749756
2019-04-07T02:15:15.625Z,9.759827
2019-04-07T02:15:31.122Z,9.759827
2019-04-07T02:15:46.532Z,9.759827
2019-04-07T02:16:02.016Z,9.759827
2019-04-07T02:16:17.431Z,9.749756
2019-04-07T02:16:33.845Z,9.749756
2019-04-07T02:16:48.255Z,9.759827
2019-04-07T02:17:03.628Z,9.749756
2019-04-07T02:17:19.082Z,9.749756
2019-04-07T02:17:34.466Z,9.749756
2019-04-07T02:17:49.857Z,9.749756
2019-04-07T02:18:05.253Z,9.749756
2019-04-07T02:18:21.754Z,9.749756
2019-04-07T02:18:37.132Z,9.749756
2019-04-07T02:18:52.539Z,9.759827
2019-04-07T02:19:07.943Z,9.749756
2019-04-07T02:19:23.356Z,9.749756
2019-04-07T02:19:38.762Z,9.749756
2019-04-07T02:19:54.171Z,9.749756
2019-04-07T02:20:09.584Z,9.749756
2019-04-07T02:20:24.982Z,9.749756
2019-04-07T02:20:40.506Z,9.759827
2019-04-07T02:20:55.909Z,9.749756
2019-04-07T02:21:11.324Z,9.749756
2019-04-07T02:21:26.672Z,9.759827
2019-04-07T02:21:42.108Z,9.749756
2019-04-07T02:21:57.504Z,9.759827
2019-04-07T02:22:12.923Z,9.749756
2019-04-07T02:22:28.326Z,9.749756
2019-04-07T02:22:43.725Z,9.759827
2019-04-07T02:22:59.148Z,9.749756
2019-04-07T02:23:14.625Z,9.759827
2019-04-07T02:23:31.035Z,9.759827
2019-04-07T02:23:46.504Z,9.749756
2019-04-07T02:24:01.937Z,9.749756
2019-04-07T02:24:17.374Z,9.749756
2019-04-07T02:24:32.775Z,9.749756
2019-04-07T02:24:48.209Z,9.749756
2019-04-07T02:25:03.657Z,9.739685
2019-04-07T02:25:19.079Z,9.739685
2019-04-07T02:25:34.455Z,9.739685
2019-04-07T02:25:49.870Z,9.739685
2019-04-07T02:26:05.301Z,9.739685
2019-04-07T02:26:20.721Z,9.719543
2019-04-07T02:26:36.145Z,9.719543
2019-04-07T02:26:51.546Z,9.739685
2019-04-07T02:27:06.936Z,9.719543
2019-04-07T02:27:22.340Z,9.719543
2019-04-07T02:27:37.718Z,9.739685
2019-04-07T02:27:53.959Z,9.719543
2019-04-07T02:28:09.368Z,9.719543
2019-04-07T02:28:24.743Z,9.739685
2019-04-07T02:28:40.125Z,9.719543
2019-04-07T02:28:55.539Z,9.719543
2019-04-07T02:29:10.950Z,9.719543
2019-04-07T02:29:26.349Z,9.709473
2019-04-07T02:29:41.745Z,9.709473
2019-04-07T02:29:57.154Z,9.739685
2019-04-07T02:30:18.544Z,9.689331
2019-04-07T02:30:43.837Z,9.689331
2019-04-07T02:31:05.239Z,9.67926
2019-04-07T02:31:26.553Z,9.689331
2019-04-07T02:31:48.959Z,9.67926
2019-04-07T02:32:12.258Z,9.659119
2019-04-07T02:32:33.622Z,9.659119
2019-04-07T02:32:56.973Z,9.649048
2019-04-07T02:33:20.317Z,9.649048
2019-04-07T02:33:41.643Z,9.638977
2019-04-07T02:34:02.122Z,9.638977
2019-04-07T02:34:24.561Z,9.608765
2019-04-07T02:34:47.928Z,9.608765
2019-04-07T02:35:11.205Z,9.608765
2019-04-07T02:35:33.573Z,9.598694
2019-04-07T02:35:54.963Z,9.598694
2019-04-07T02:36:26.715Z,9.578552
2019-04-07T02:36:45.612Z,9.578552
2019-04-07T02:37:08.940Z,9.578552
2019-04-07T02:37:30.334Z,9.578552
2019-04-07T02:37:51.680Z,9.578552
2019-04-07T02:38:18.181Z,9.568481
2019-04-07T02:38:41.379Z,9.568481
2019-04-07T02:39:01.720Z,9.568481
2019-04-07T02:39:24.036Z,9.558411
2019-04-07T02:39:45.462Z,9.558411
2019-04-07T02:40:08.769Z,9.558411
2019-04-07T02:40:30.122Z,9.558411
2019-04-07T02:40:50.364Z,9.528198
2019-04-07T02:41:14.754Z,9.528198
2019-04-07T02:41:37.126Z,9.528198
2019-04-07T02:41:59.446Z,9.508057
2019-04-07T02:42:21.851Z,9.528198
2019-04-07T02:42:45.171Z,9.497986
2019-04-07T02:43:07.543Z,9.477844
2019-04-07T02:43:29.967Z,9.497986
2019-04-07T02:43:52.211Z,9.497986
2019-04-07T02:44:12.653Z,9.497986
2019-04-07T02:44:35.998Z,9.477844
2019-04-07T02:44:56.321Z,9.477844
2019-04-07T02:45:18.704Z,9.477844
2019-04-07T02:45:40.102Z,9.477844
2019-04-07T02:46:01.382Z,9.477844
2019-04-07T02:46:22.838Z,9.467773
2019-04-07T02:46:43.161Z,9.467773
2019-04-07T02:47:05.513Z,9.457703
2019-04-07T02:47:26.905Z,9.467773
2019-04-07T02:47:49.191Z,9.467773
2019-04-07T02:48:09.638Z,9.467773
2019-04-07T02:48:31.021Z,9.467773
2019-04-07T02:48:53.430Z,9.42749
2019-04-07T02:49:15.796Z,9.42749
2019-04-07T02:49:37.121Z,9.42749
2019-04-07T02:49:58.668Z,9.42749
2019-04-07T02:50:21.043Z,9.42749
2019-04-07T02:50:42.308Z,9.417419
2019-04-07T02:51:04.755Z,9.417419
2019-04-07T02:51:28.839Z,9.397278
2019-04-07T02:51:52.089Z,9.387207
2019-04-07T02:52:13.506Z,9.387207
2019-04-07T02:52:34.829Z,9.387207
2019-04-07T02:52:56.194Z,9.377136
2019-04-07T02:53:18.493Z,9.387207
2019-04-07T02:53:42.676Z,9.377136
2019-04-07T02:54:05.031Z,9.356995
2019-04-07T02:54:26.374Z,9.377136
2019-04-07T02:54:48.733Z,9.377136
2019-04-07T02:55:10.073Z,9.377136
2019-04-07T02:55:32.501Z,9.377136
2019-04-07T02:55:52.846Z,9.356995
2019-04-07T02:56:12.275Z,9.356995
2019-04-07T02:56:31.649Z,9.356995
2019-04-07T02:56:51.124Z,9.346924
2019-04-07T02:57:12.433Z,9.346924
2019-04-07T02:57:30.865Z,9.346924
2019-04-07T02:57:53.190Z,9.346924
2019-04-07T02:58:12.590Z,9.346924
2019-04-07T02:58:34.970Z,9.346924
2019-04-07T02:58:57.337Z,9.316711
2019-04-07T02:59:18.789Z,9.326782
2019-04-07T02:59:43.401Z,9.306641
2019-04-07T03:00:03.481Z,9.306641
2019-04-07T03:00:26.797Z,9.306641
2019-04-07T03:00:49.157Z,9.306641
2019-04-07T03:01:08.552Z,9.306641
2019-04-07T03:01:32.025Z,9.286499
2019-04-07T03:01:54.369Z,9.256287
2019-04-07T03:02:16.726Z,9.256287
2019-04-07T03:02:37.042Z,9.256287
2019-04-07T03:03:00.504Z,9.226074
2019-04-07T03:03:21.892Z,9.205933
2019-04-07T03:03:45.269Z,9.195862
2019-04-07T03:04:06.551Z,9.17572
2019-04-07T03:04:27.928Z,9.165649
2019-04-07T03:04:49.249Z,9.165649
2019-04-07T03:05:10.648Z,9.165649
2019-04-07T03:05:32.003Z,9.145508
2019-04-07T03:05:53.293Z,9.135437
2019-04-07T03:06:32.306Z,9.135437
2019-04-07T03:06:48.140Z,9.135437
2019-04-07T03:07:09.256Z,9.105225
2019-04-07T03:07:31.678Z,9.075012
2019-04-07T03:07:52.102Z,9.095154
2019-04-07T03:08:14.455Z,9.095154
2019-04-07T03:08:34.758Z,9.075012
2019-04-07T03:08:55.128Z,9.095154
2019-04-07T03:09:17.637Z,9.095154
2019-04-07T03:09:38.952Z,9.075012
2019-04-07T03:09:59.389Z,9.054871
2019-04-07T03:10:20.692Z,9.054871
2019-04-07T03:10:43.142Z,9.0448
2019-04-07T03:11:04.528Z,9.054871
2019-04-07T03:11:26.850Z,9.054871
2019-04-07T03:11:48.183Z,9.054871
2019-04-07T03:12:09.494Z,9.054871
2019-04-07T03:12:29.858Z,9.075012
2019-04-07T03:12:50.238Z,9.054871
2019-04-07T03:13:11.722Z,9.075012
2019-04-07T03:13:34.032Z,9.075012
2019-04-07T03:13:56.300Z,9.054871
2019-04-07T03:14:16.786Z,9.054871
2019-04-07T03:14:36.224Z,9.054871
2019-04-07T03:14:57.542Z,9.054871
2019-04-07T03:15:21.861Z,9.075012
2019-04-07T03:15:43.240Z,9.054871
2019-04-07T03:16:06.507Z,9.054871
2019-04-07T03:16:26.999Z,9.075012
2019-04-07T03:16:46.461Z,9.075012
2019-04-07T03:17:10.793Z,9.0448
2019-04-07T03:17:34.118Z,9.075012
2019-04-07T03:17:56.467Z,9.054871
2019-04-07T03:18:18.948Z,9.054871
2019-04-07T03:18:41.256Z,9.054871
2019-04-07T03:19:03.615Z,9.054871
2019-04-07T03:19:28.928Z,9.054871
2019-04-07T03:19:51.109Z,9.054871
2019-04-07T03:20:14.506Z,9.054871
2019-04-07T03:20:34.996Z,9.054871
2019-04-07T03:20:58.287Z,9.0448
2019-04-07T03:21:21.678Z,9.024658
2019-04-07T03:21:44.959Z,9.014587
2019-04-07T03:22:05.362Z,9.024658
2019-04-07T03:22:28.141Z,9.024658